Terminal Aerodrome Forecast
Issued by NWS Sioux Falls, SD

Home | Current Version | Previous Version | Graphics & Text | Print | Product List | Glossary On
Versions: 1 2 3 4 5 6 7 8 9 10 11 12 13 14 15 16
000
FTUS43 KFSD 180540
TAFFSD
TAF
KFSD 180540Z 1806/1906 15011G22KT P6SM BKN250
     FM181700 16018G30KT P6SM SCT050 BKN150
     FM182300 17018G30KT P6SM VCSH BKN050
     FM190300 15009KT 5SM TSRA OVC035CB=

USA.gov is the U.S. government's official web portal to all federal, state and local government web resources and services.